createdAt,value
2022-08-09T00:00:13.361Z,3.05
2022-08-09T00:02:49.001Z,2.60
2022-08-09T00:06:15.962Z,2.67
2022-08-09T00:08:04.089Z,2.40
2022-08-09T00:10:37.425Z,2.78
2022-08-09T00:13:06.723Z,2.78
2022-08-09T00:15:58.118Z,2.50
2022-08-09T00:18:29.026Z,2.40
2022-08-09T00:20:55.711Z,2.70
2022-08-09T00:23:56.142Z,2.70
2022-08-09T00:26:10.979Z,3.10
2022-08-09T00:28:38.423Z,2.88
2022-08-09T00:31:50.474Z,2.92
2022-08-09T00:33:53.726Z,2.42
2022-08-09T00:36:20.906Z,2.72
2022-08-09T00:38:50.582Z,2.85
2022-08-09T00:44:11.267Z,2.90
2022-08-09T00:44:15.691Z,2.40
2022-08-09T00:46:57.712Z,2.70
2022-08-09T00:49:31.276Z,2.97
2022-08-09T00:52:02.193Z,2.38
2022-08-09T00:54:35.912Z,2.30
2022-08-09T00:57:10.436Z,2.15
2022-08-09T00:59:41.378Z,2.65
2022-08-09T01:02:22.584Z,2.72
2022-08-09T01:05:14.087Z,2.55
2022-08-09T01:08:00.855Z,2.28
2022-08-09T01:10:43.040Z,1.88
2022-08-09T01:13:31.110Z,2.88
2022-08-09T01:16:10.158Z,2.88
2022-08-09T01:21:45.202Z,2.75
2022-08-09T01:24:50.430Z,2.70
2022-08-09T01:27:20.198Z,2.80
2022-08-09T01:29:56.031Z,2.83
2022-08-09T01:32:31.947Z,3.22
2022-08-09T01:35:06.965Z,3.05
2022-08-09T01:38:07.804Z,2.53
2022-08-09T01:40:33.421Z,2.50
2022-08-09T01:43:00.505Z,2.28
2022-08-09T01:45:29.199Z,2.53
2022-08-09T01:47:56.966Z,2.95
2022-08-09T01:50:29.948Z,3.00
2022-08-09T01:53:19.419Z,2.60
2022-08-09T01:55:47.875Z,2.50
2022-08-09T01:58:15.278Z,2.10
2022-08-09T02:00:46.325Z,2.65
2022-08-09T02:03:18.502Z,2.50
2022-08-09T02:06:03.420Z,3.03
2022-08-09T02:08:36.109Z,2.90
2022-08-09T02:11:18.832Z,2.63
2022-08-09T02:13:55.364Z,3.00
2022-08-09T02:16:59.307Z,2.92
2022-08-09T02:19:22.591Z,3.10
2022-08-09T02:21:55.676Z,2.80
2022-08-09T02:24:26.039Z,2.50
2022-08-09T02:26:55.658Z,2.38
2022-08-09T02:29:27.819Z,2.30
2022-08-09T02:31:59.723Z,2.50
2022-08-09T02:34:41.712Z,2.78
2022-08-09T02:37:21.623Z,2.70
2022-08-09T02:40:01.852Z,2.90
2022-08-09T02:42:36.085Z,2.25
2022-08-09T02:45:12.118Z,3.13
2022-08-09T02:47:57.573Z,2.35
2022-08-09T02:50:29.611Z,2.88
2022-08-09T02:53:25.992Z,2.80
2022-08-09T02:55:57.474Z,3.08
2022-08-09T02:58:36.433Z,2.95
2022-08-09T03:01:06.100Z,2.75
2022-08-09T03:04:05.805Z,2.88
2022-08-09T03:06:23.027Z,3.15
2022-08-09T03:08:52.399Z,2.75
2022-08-09T03:12:04.775Z,2.95
2022-08-09T03:14:10.034Z,2.80
2022-08-09T03:16:41.623Z,3.20
2022-08-09T03:19:14.364Z,3.25
2022-08-09T03:21:58.235Z,2.45
2022-08-09T03:24:31.471Z,2.70
2022-08-09T03:27:10.657Z,2.63
2022-08-09T03:29:56.949Z,3.47
2022-08-09T03:32:29.565Z,2.83
2022-08-09T03:34:58.042Z,3.28
2022-08-09T03:37:54.776Z,3.72
2022-08-09T03:40:13.091Z,3.28
2022-08-09T03:42:40.131Z,3.63
2022-08-09T03:45:10.735Z,3.10
2022-08-09T03:47:40.078Z,3.30
2022-08-09T03:52:40.423Z,3.20
2022-08-09T03:55:10.223Z,3.03
2022-08-09T03:57:44.677Z,3.03
2022-08-09T04:00:20.524Z,2.97
2022-08-09T04:02:47.600Z,3.22
2022-08-09T04:05:27.435Z,3.42
2022-08-09T04:07:57.303Z,2.72
2022-08-09T04:10:28.823Z,3.10
2022-08-09T04:13:01.230Z,3.08
2022-08-09T04:16:18.007Z,3.30
2022-08-09T04:18:17.838Z,3.42
2022-08-09T04:20:46.448Z,2.90
2022-08-09T04:23:17.014Z,3.28
2022-08-09T04:25:44.169Z,3.35
2022-08-09T04:28:10.718Z,3.17
2022-08-09T04:30:39.094Z,2.92
2022-08-09T04:33:11.439Z,3.40
2022-08-09T04:35:42.357Z,3.05
2022-08-09T04:38:09.114Z,3.00
2022-08-09T04:40:54.260Z,3.65
2022-08-09T04:43:25.254Z,3.38
2022-08-09T04:45:53.984Z,3.50
2022-08-09T04:48:21.101Z,3.20
2022-08-09T04:50:50.327Z,2.65
2022-08-09T04:53:16.959Z,3.10
2022-08-09T04:55:58.183Z,3.25
2022-08-09T04:58:31.715Z,3.70
2022-08-09T05:01:01.337Z,3.28
2022-08-09T05:03:41.286Z,2.85
2022-08-09T05:06:25.737Z,3.20
2022-08-09T05:09:00.247Z,3.92
2022-08-09T05:11:30.578Z,3.38
2022-08-09T05:13:59.202Z,3.03
2022-08-09T05:16:28.442Z,3.03
2022-08-09T05:18:59.970Z,3.20
2022-08-09T05:21:30.054Z,2.78
2022-08-09T05:24:00.322Z,3.70
2022-08-09T05:26:40.999Z,2.72
2022-08-09T05:29:24.240Z,3.78
2022-08-09T05:32:00.319Z,2.97
2022-08-09T05:34:31.411Z,2.85
2022-08-09T05:37:06.462Z,2.97
2022-08-09T05:39:43.661Z,3.42
2022-08-09T05:42:17.456Z,2.45
2022-08-09T05:44:51.833Z,2.50
2022-08-09T05:47:23.056Z,2.60
2022-08-09T05:50:30.248Z,2.35
2022-08-09T05:52:42.276Z,2.15
2022-08-09T05:55:18.199Z,2.53
2022-08-09T05:57:50.792Z,2.40
2022-08-09T06:00:25.542Z,2.17
2022-08-09T06:02:54.707Z,2.20
2022-08-09T06:08:11.110Z,2.72
2022-08-09T06:10:38.221Z,2.08
2022-08-09T06:13:12.119Z,2.38
2022-08-09T06:15:45.064Z,2.38
2022-08-09T06:18:13.859Z,2.28
2022-08-09T06:20:42.629Z,2.38
2022-08-09T06:23:12.051Z,2.15
2022-08-09T06:25:43.331Z,2.38
2022-08-09T06:28:10.071Z,2.15
2022-08-09T06:30:36.905Z,2.40
2022-08-09T06:33:30.163Z,3.05
2022-08-09T06:35:57.138Z,2.05
2022-08-09T06:38:36.358Z,1.67
2022-08-09T06:41:04.894Z,1.80
2022-08-09T06:43:45.519Z,1.42
2022-08-09T06:46:39.025Z,2.35
2022-08-09T06:49:00.315Z,1.83
2022-08-09T06:51:27.087Z,1.63
2022-08-09T06:53:55.057Z,1.60
2022-08-09T06:56:21.606Z,1.50
2022-08-09T07:00:53.774Z,1.95
2022-08-09T07:01:53.896Z,1.90
2022-08-09T07:04:24.339Z,1.73
2022-08-09T07:06:53.192Z,1.80
2022-08-09T07:09:55.468Z,1.83
2022-08-09T07:12:06.841Z,1.65
2022-08-09T07:14:40.534Z,1.50
2022-08-09T07:17:08.225Z,1.95
2022-08-09T07:19:34.936Z,1.65
2022-08-09T07:22:01.491Z,1.65
2022-08-09T07:24:40.735Z,1.67
2022-08-09T07:27:27.137Z,1.83
2022-08-09T07:29:59.498Z,1.80
2022-08-09T07:32:33.516Z,2.10
2022-08-09T07:35:12.090Z,1.75
2022-08-09T07:37:45.429Z,1.92
2022-08-09T07:40:17.398Z,1.70
2022-08-09T07:42:55.520Z,1.75
2022-08-09T07:45:37.366Z,1.48
2022-08-09T07:48:06.400Z,1.85
2022-08-09T07:50:36.447Z,1.98
2022-08-09T07:53:04.792Z,1.70
2022-08-09T07:55:41.334Z,1.75
2022-08-09T07:58:18.444Z,2.17
2022-08-09T08:00:55.779Z,2.08
2022-08-09T08:03:31.603Z,1.90
2022-08-09T08:05:58.602Z,1.70
2022-08-09T08:09:01.457Z,2.05
2022-08-09T08:12:09.661Z,1.98
2022-08-09T08:13:59.025Z,1.85
2022-08-09T08:16:31.512Z,2.13
2022-08-09T08:18:59.701Z,1.80
2022-08-09T08:21:30.425Z,2.00
2022-08-09T08:23:56.988Z,2.05
2022-08-09T08:26:47.410Z,2.38
2022-08-09T08:29:15.009Z,2.00
2022-08-09T08:32:03.318Z,2.35
2022-08-09T08:34:33.568Z,1.95
2022-08-09T08:37:01.739Z,2.20
2022-08-09T08:39:28.755Z,2.00
2022-08-09T08:41:55.508Z,1.92
2022-08-09T08:44:29.538Z,2.72
2022-08-09T08:47:02.960Z,2.17
2022-08-09T08:49:48.191Z,1.92
2022-08-09T08:52:52.540Z,1.90
2022-08-09T08:55:08.563Z,2.10
2022-08-09T08:57:37.218Z,2.17
2022-08-09T09:00:12.585Z,1.73
2022-08-09T09:02:44.604Z,1.95
2022-08-09T09:05:33.137Z,1.88
2022-08-09T09:08:30.221Z,1.83
2022-08-09T09:10:57.706Z,2.22
2022-08-09T09:13:24.337Z,1.95
2022-08-09T09:16:09.196Z,1.90
2022-08-09T09:18:36.370Z,1.60
2022-08-09T09:21:08.790Z,2.22
2022-08-09T09:23:49.607Z,2.17
2022-08-09T09:26:23.842Z,1.95
2022-08-09T09:29:03.724Z,1.70
2022-08-09T09:32:14.689Z,1.77
2022-08-09T09:34:23.756Z,2.65
2022-08-09T09:36:54.131Z,1.70
2022-08-09T09:39:50.379Z,2.10
2022-08-09T09:42:24.447Z,1.75
2022-08-09T09:44:56.988Z,2.17
2022-08-09T09:47:24.162Z,1.70
2022-08-09T09:50:15.206Z,1.77
2022-08-09T09:52:56.239Z,1.75
2022-08-09T09:55:27.890Z,2.10
2022-08-09T09:58:16.976Z,2.08
2022-08-09T10:00:59.596Z,1.90
2022-08-09T10:03:43.780Z,1.80
2022-08-09T10:06:12.556Z,1.65
2022-08-09T10:08:44.268Z,2.13
2022-08-09T10:12:01.131Z,1.90
2022-08-09T10:14:30.314Z,1.98
2022-08-09T10:17:11.270Z,2.30
2022-08-09T10:19:45.818Z,2.00
2022-08-09T10:22:12.619Z,2.08
2022-08-09T10:24:40.019Z,1.80
2022-08-09T10:27:16.973Z,1.70
2022-08-09T10:30:48.061Z,2.35
2022-08-09T10:32:40.294Z,1.55
2022-08-09T10:35:10.330Z,1.50
2022-08-09T10:37:38.367Z,1.70
2022-08-09T10:40:07.046Z,1.60
2022-08-09T10:42:38.860Z,1.95
2022-08-09T10:45:10.641Z,1.92
2022-08-09T10:48:25.914Z,1.50
2022-08-09T10:51:06.824Z,1.55
2022-08-09T10:54:04.798Z,2.63
2022-08-09T10:56:33.890Z,1.50
2022-08-09T10:59:23.226Z,1.83
2022-08-09T11:03:11.612Z,1.88
2022-08-09T11:04:37.693Z,1.60
2022-08-09T11:07:27.173Z,1.60
2022-08-09T11:10:13.741Z,1.80
2022-08-09T11:12:45.025Z,1.60
2022-08-09T11:15:19.331Z,1.73
2022-08-09T11:17:53.656Z,1.50
2022-08-09T11:20:45.144Z,1.65
2022-08-09T11:23:13.587Z,1.77
2022-08-09T11:25:46.098Z,2.03
2022-08-09T11:28:35.218Z,2.33
2022-08-09T11:31:39.610Z,1.70
2022-08-09T11:34:28.150Z,1.70
2022-08-09T11:36:56.809Z,2.00
2022-08-09T11:39:24.363Z,2.30
2022-08-09T11:41:54.594Z,1.70
2022-08-09T11:44:44.207Z,1.92
2022-08-09T11:47:11.071Z,1.80
2022-08-09T11:53:16.673Z,1.55
2022-08-09T11:55:53.557Z,1.75
2022-08-09T11:58:30.489Z,1.50
2022-08-09T12:01:15.736Z,1.85
2022-08-09T12:03:59.631Z,2.03
2022-08-09T12:06:32.902Z,1.80
2022-08-09T12:09:05.302Z,2.10
2022-08-09T12:11:37.104Z,1.60
2022-08-09T12:14:37.070Z,1.45
2022-08-09T12:17:28.269Z,1.88
2022-08-09T12:19:59.789Z,1.60
2022-08-09T12:22:27.363Z,1.92
2022-08-09T12:25:14.999Z,1.65
2022-08-09T12:29:10.988Z,1.80
2022-08-09T12:30:36.361Z,1.60
2022-08-09T12:33:05.606Z,1.85
2022-08-09T12:35:40.170Z,1.77
2022-08-09T12:38:37.358Z,1.50
2022-08-09T12:41:05.530Z,1.45
2022-08-09T12:44:05.499Z,1.60
2022-08-09T12:46:21.311Z,2.03
2022-08-09T12:48:49.078Z,1.95
2022-08-09T12:51:52.663Z,1.73
2022-08-09T12:54:07.191Z,1.83
2022-08-09T12:56:48.787Z,1.60
2022-08-09T12:59:23.154Z,1.60
2022-08-09T13:01:58.730Z,1.80
2022-08-09T13:04:36.134Z,1.52
2022-08-09T13:07:16.534Z,1.67
2022-08-09T13:09:55.238Z,1.80
2022-08-09T13:12:26.938Z,1.42
2022-08-09T13:15:07.449Z,1.70
2022-08-09T13:18:03.806Z,1.85
2022-08-09T13:22:33.773Z,1.58
2022-08-09T13:24:42.089Z,1.90
2022-08-09T13:26:41.593Z,1.70
2022-08-09T13:29:13.766Z,2.05
2022-08-09T13:32:20.295Z,1.40
2022-08-09T13:34:44.145Z,1.65
2022-08-09T13:37:13.123Z,1.40
2022-08-09T13:41:46.433Z,1.70
2022-08-09T13:42:38.376Z,2.08
2022-08-09T13:45:08.368Z,1.65
2022-08-09T13:47:48.963Z,1.63
2022-08-09T13:50:30.783Z,1.80
2022-08-09T13:55:24.369Z,1.95
2022-08-09T13:57:58.048Z,2.00
2022-08-09T14:00:28.716Z,1.88
2022-08-09T14:03:04.463Z,1.60
2022-08-09T14:06:00.716Z,1.90
2022-08-09T14:08:30.417Z,2.10
2022-08-09T14:10:57.987Z,1.80
2022-08-09T14:14:15.128Z,2.00
2022-08-09T14:16:16.146Z,1.55
2022-08-09T14:18:49.560Z,1.90
2022-08-09T14:21:22.654Z,1.90
2022-08-09T14:23:56.691Z,1.90
2022-08-09T14:26:31.963Z,1.88
2022-08-09T14:29:01.400Z,1.58
2022-08-09T14:31:35.747Z,1.55
2022-08-09T14:34:17.443Z,1.52
2022-08-09T14:36:55.113Z,1.50
2022-08-09T14:39:21.711Z,1.60
2022-08-09T14:42:07.633Z,1.80
2022-08-09T14:44:48.931Z,1.60
2022-08-09T14:47:42.815Z,1.77
2022-08-09T14:50:07.538Z,1.55
2022-08-09T14:52:37.760Z,1.83
2022-08-09T14:55:06.856Z,2.00
2022-08-09T14:57:43.158Z,1.58
2022-08-09T15:00:10.871Z,1.73
2022-08-09T15:02:37.635Z,1.63
2022-08-09T15:05:07.020Z,1.80
2022-08-09T15:07:35.427Z,2.08
2022-08-09T15:10:11.048Z,1.77
2022-08-09T15:12:40.521Z,1.42
2022-08-09T15:15:13.312Z,1.75
2022-08-09T15:17:41.830Z,1.75
2022-08-09T15:23:01.958Z,2.00
2022-08-09T15:25:40.806Z,1.75
2022-08-09T15:28:26.237Z,1.60
2022-08-09T15:31:03.267Z,2.17
2022-08-09T15:34:17.615Z,1.63
2022-08-09T15:36:28.679Z,1.77
2022-08-09T15:38:57.268Z,1.92
2022-08-09T15:41:31.798Z,1.40
2022-08-09T15:44:02.633Z,1.63
2022-08-09T15:46:33.871Z,1.75
2022-08-09T15:49:21.686Z,1.77
2022-08-09T15:52:04.475Z,1.40
2022-08-09T15:54:46.091Z,1.58
2022-08-09T15:57:35.066Z,1.73
2022-08-09T16:00:14.837Z,1.77
2022-08-09T16:02:48.219Z,1.58
2022-08-09T16:05:22.154Z,1.58
2022-08-09T16:07:50.759Z,1.70
2022-08-09T16:10:54.790Z,1.50
2022-08-09T16:13:18.607Z,1.77
2022-08-09T16:16:04.629Z,1.83
2022-08-09T16:18:34.961Z,1.63
2022-08-09T16:21:01.578Z,1.75
2022-08-09T16:23:28.235Z,1.67
2022-08-09T16:26:00.973Z,1.58
2022-08-09T16:28:29.470Z,1.50
2022-08-09T16:30:58.793Z,1.77
2022-08-09T16:33:26.520Z,1.73
2022-08-09T16:35:56.010Z,1.70
2022-08-09T16:38:25.227Z,1.75
2022-08-09T16:40:51.875Z,2.00
2022-08-09T16:43:18.613Z,1.27
2022-08-09T16:45:48.149Z,2.00
2022-08-09T16:48:50.201Z,2.00
2022-08-09T16:51:08.061Z,2.00
2022-08-09T16:53:56.293Z,1.52
2022-08-09T16:56:27.648Z,1.73
2022-08-09T16:58:57.764Z,1.65
2022-08-09T17:01:24.984Z,1.63
2022-08-09T17:03:51.947Z,1.13
2022-08-09T17:06:31.351Z,1.88
2022-08-09T17:09:17.613Z,1.85
2022-08-09T17:11:48.287Z,1.77
2022-08-09T17:14:27.197Z,1.50
2022-08-09T17:16:56.873Z,2.00
2022-08-09T17:19:27.760Z,1.30
2022-08-09T17:22:14.646Z,1.58
2022-08-09T17:24:47.795Z,1.60
2022-08-09T17:27:21.758Z,1.52
2022-08-09T17:29:48.446Z,1.45
2022-08-09T17:32:20.077Z,1.40
2022-08-09T17:35:04.174Z,1.67
2022-08-09T17:38:13.107Z,1.75
2022-08-09T17:40:21.347Z,1.60
2022-08-09T17:42:59.070Z,1.40
2022-08-09T17:46:01.710Z,1.60
2022-08-09T17:48:16.395Z,1.77
2022-08-09T17:50:55.810Z,1.58
2022-08-09T17:53:23.207Z,1.55
2022-08-09T17:55:54.194Z,1.40
2022-08-09T17:58:22.000Z,1.50
2022-08-09T18:00:54.791Z,1.70
2022-08-09T18:03:23.635Z,1.40
2022-08-09T18:05:53.242Z,1.45
2022-08-09T18:08:22.196Z,1.42
2022-08-09T18:11:01.801Z,1.25
2022-08-09T18:13:43.254Z,1.77
2022-08-09T18:16:16.737Z,1.40
2022-08-09T18:18:49.328Z,1.50
2022-08-09T18:21:23.087Z,1.48
2022-08-09T18:24:09.854Z,1.83
2022-08-09T18:26:38.305Z,1.88
2022-08-09T18:30:39.326Z,1.23
2022-08-09T18:32:00.640Z,1.80
2022-08-09T18:34:31.487Z,1.40
2022-08-09T18:36:58.471Z,1.52
2022-08-09T18:39:25.800Z,1.50
2022-08-09T18:42:01.052Z,1.70
2022-08-09T18:44:27.808Z,1.73
2022-08-09T18:47:06.259Z,1.50
2022-08-09T18:49:41.773Z,1.15
2022-08-09T18:52:13.476Z,1.63
2022-08-09T18:54:49.646Z,1.60
2022-08-09T18:57:22.222Z,1.58
2022-08-09T18:59:57.562Z,1.30
2022-08-09T19:02:30.536Z,1.50
2022-08-09T19:05:14.840Z,1.50
2022-08-09T19:07:59.390Z,1.52
2022-08-09T19:10:37.075Z,1.60
2022-08-09T19:13:20.050Z,1.67
2022-08-09T19:15:49.360Z,1.65
2022-08-09T19:18:33.886Z,1.75
2022-08-09T19:21:03.351Z,1.35
2022-08-09T19:24:35.645Z,1.50
2022-08-09T19:26:18.893Z,1.52
2022-08-09T19:28:55.850Z,1.20
2022-08-09T19:31:27.917Z,1.90
2022-08-09T19:33:57.785Z,1.50
2022-08-09T19:36:30.680Z,1.75
2022-08-09T19:39:03.586Z,1.38
2022-08-09T19:41:32.862Z,1.77
2022-08-09T19:44:03.151Z,1.45
2022-08-09T19:46:35.184Z,1.40
2022-08-09T19:50:08.877Z,1.38
2022-08-09T19:51:56.043Z,1.70
2022-08-09T19:54:24.940Z,1.63
2022-08-09T19:56:51.989Z,1.88
2022-08-09T19:59:58.202Z,1.45
2022-08-09T20:04:06.818Z,1.70
2022-08-09T20:04:54.979Z,1.58
2022-08-09T20:07:22.501Z,1.45
2022-08-09T20:09:49.346Z,1.52
2022-08-09T20:12:27.134Z,1.30
2022-08-09T20:14:58.339Z,1.40
2022-08-09T20:17:26.314Z,1.63
2022-08-09T20:19:57.995Z,1.50
2022-08-09T20:22:27.558Z,1.83
2022-08-09T20:24:59.165Z,1.42
2022-08-09T20:27:29.302Z,1.40
2022-08-09T20:29:57.260Z,1.65
2022-08-09T20:32:42.037Z,1.65
2022-08-09T20:35:10.798Z,1.45
2022-08-09T20:38:22.541Z,1.63
2022-08-09T20:40:27.082Z,1.38
2022-08-09T20:43:12.154Z,1.20
2022-08-09T20:45:59.137Z,1.50
2022-08-09T20:48:30.809Z,1.60
2022-08-09T20:50:58.528Z,0.98
2022-08-09T20:53:36.663Z,1.60
2022-08-09T20:56:05.006Z,1.23
2022-08-09T20:58:32.695Z,1.63
2022-08-09T21:01:13.734Z,1.42
2022-08-09T21:04:08.404Z,1.40
2022-08-09T21:06:35.088Z,1.50
2022-08-09T21:09:02.553Z,2.10
2022-08-09T21:14:16.684Z,1.40
2022-08-09T21:16:43.976Z,0.90
2022-08-09T21:20:17.810Z,1.60
2022-08-09T21:21:59.574Z,1.50
2022-08-09T21:24:28.429Z,1.33
2022-08-09T21:26:55.760Z,1.42
2022-08-09T21:29:23.058Z,1.63
2022-08-09T21:31:49.951Z,1.40
2022-08-09T21:34:28.640Z,1.98
2022-08-09T21:36:56.364Z,1.38
2022-08-09T21:39:28.120Z,1.40
2022-08-09T21:42:10.081Z,1.33
2022-08-09T21:44:37.873Z,1.10
2022-08-09T21:47:07.863Z,1.30
2022-08-09T21:49:39.411Z,1.23
2022-08-09T21:52:16.313Z,1.13
2022-08-09T21:55:03.269Z,1.30
2022-08-09T21:57:38.868Z,1.40
2022-08-09T22:00:32.330Z,1.15
2022-08-09T22:03:02.001Z,1.35
2022-08-09T22:05:36.819Z,1.02
2022-08-09T22:08:11.922Z,1.20
2022-08-09T22:11:04.961Z,1.20
2022-08-09T22:13:34.188Z,1.20
2022-08-09T22:16:07.531Z,1.42
2022-08-09T22:18:34.759Z,1.50
2022-08-09T22:21:01.380Z,1.33
2022-08-09T22:23:35.052Z,1.27
2022-08-09T22:26:07.324Z,1.30
2022-08-09T22:28:43.636Z,1.65
2022-08-09T22:31:20.578Z,1.25
2022-08-09T22:33:55.121Z,1.60
2022-08-09T22:36:22.365Z,1.40
2022-08-09T22:38:49.052Z,1.85
2022-08-09T22:41:16.167Z,1.55
2022-08-09T22:44:03.621Z,0.90
2022-08-09T22:48:16.514Z,1.63
2022-08-09T22:49:16.594Z,1.60
2022-08-09T22:51:49.210Z,1.40
2022-08-09T22:54:16.068Z,1.50
2022-08-09T22:56:47.741Z,1.83
2022-08-09T22:59:57.101Z,1.40
2022-08-09T23:02:10.103Z,1.10
2022-08-09T23:04:38.309Z,2.10
2022-08-09T23:08:21.152Z,1.50
2022-08-09T23:10:10.748Z,1.83
2022-08-09T23:12:37.296Z,1.70
2022-08-09T23:15:04.906Z,1.90
2022-08-09T23:17:31.633Z,1.65
2022-08-09T23:20:06.541Z,1.58
2022-08-09T23:22:34.827Z,1.90
2022-08-09T23:25:05.587Z,1.85
2022-08-09T23:27:32.716Z,1.60
2022-08-09T23:29:59.626Z,1.42
2022-08-09T23:32:26.188Z,1.75
2022-08-09T23:34:52.733Z,1.67
2022-08-09T23:37:21.544Z,1.50
2022-08-09T23:39:49.611Z,1.70
2022-08-09T23:42:16.271Z,1.70
2022-08-09T23:44:42.901Z,1.60
2022-08-09T23:47:09.468Z,1.88
2022-08-09T23:49:35.992Z,1.70
2022-08-09T23:52:02.722Z,2.03
2022-08-09T23:54:29.275Z,2.20
2022-08-09T23:56:58.348Z,1.98
2022-08-09T23:59:25.622Z,1.88
